METAR Data
IDs: Format: Raw Decoded Include TAF

Data at: 1515 UTC 10 Aug 2022

KOKB 101452Z AUTO 00000KT 9SM CLR 23/18 A2998 RMK AO2 SLP152 T02330183 53014
KOKB 101352Z AUTO 00000KT 8SM CLR 21/18 A2997 RMK AO2 SLP148 T02060178
KOKB 101252Z AUTO 00000KT 9SM CLR 19/17 A2995 RMK AO2 SLP141 T01890172
KOKB 101152Z AUTO 00000KT 8SM CLR 19/18 A2994 RMK AO2 SLP138 T01890178 10222 20189 56005
KOKB 101052Z AUTO 00000KT 8SM CLR 19/18 A2995 RMK AO2 SLP140 T01940183
KOKB 100952Z AUTO 04003KT 8SM CLR 21/19 A2995 RMK AO2 SLP140 T02060189
KOKB 100852Z AUTO 03003KT 7SM CLR 21/19 A2996 RMK AO2 SLP143 T02060189 58003
KOKB 100752Z AUTO 00000KT 9SM CLR 21/18 A2996 RMK AO2 SLP145 T02060183 402940183
KOKB 100652Z AUTO 28003KT 9SM CLR 21/19 A2996 RMK AO2 SLP146 T02110189
KOKB 100552Z AUTO 00000KT 9SM CLR 22/19 A2996 RMK AO2 SLP146 T02220189 10289 20217 51017
KOKB 100452Z AUTO 00000KT 9SM CLR 23/20 A2996 RMK AO2 SLP145 T02280200
KOKB 100352Z AUTO 26004KT 10SM CLR 23/19 A2993 RMK AO2 SLP134 T02280194
KOKB 100252Z AUTO 25006KT 8SM CLR 23/20 A2991 RMK AO2 SLP129 T02330200 53008
KOKB 100152Z AUTO 25008KT 9SM CLR 24/19 A2989 RMK AO2 SLP123 T02440194
KOKB 100052Z AUTO 24008KT 9SM CLR 27/18 A2989 RMK AO2 SLP120 T02720183
KOKB 092352Z AUTO 26006KT 10SM CLR 28/15 A2989 RMK AO2 SLP121 T02780150 10294 20267 56009
KOKB 092252Z AUTO 24008KT 10SM CLR 29/15 A2989 RMK AO2 SLP121 T02890150
KOKB 092152Z AUTO 27010KT 9SM CLR 28/18 A2990 RMK AO2 SLP125 T02780178
KOKB 092052Z AUTO 26009KT 8SM CLR 28/19 A2992 RMK AO2 SLP130 T02780194 58005
KOKB 091952Z AUTO 25010KT 9SM CLR 28/19 A2993 RMK AO2 SLP133 T02830189
KOKB 091852Z AUTO 24010KT 9SM CLR 28/18 A2993 RMK AO2 SLP135 T02780183
KOKB 091752Z AUTO 27009KT 8SM CLR 28/19 A2993 RMK AO2 SLP135 T02780189 10278 20183 58000
KOKB 091652Z AUTO VRB04KT 8SM CLR 27/20 A2993 RMK AO2 SLP134 T02670200
KOKB 091552Z AUTO 25004KT 7SM CLR 26/21 A2994 RMK AO2 SLP137 T02560206
KOKB 091452Z AUTO 00000KT 7SM CLR 23/19 A2993 RMK AO2 SLP136 T02330194 53014
KOKB 091352Z AUTO 33003KT 7SM CLR 19/18 A2992 RMK AO2 SLP131 T01890178
KOKB 091252Z AUTO 00000KT 7SM CLR 18/17 A2990 RMK AO2 SLP124 T01830172
KOKB 091152Z AUTO 00000KT 8SM CLR 19/18 A2989 RMK AO2 SLP122 T01940183 10228 20189 55001
KOKB 091052Z AUTO 00000KT 8SM CLR 20/18 A2989 RMK AO2 SLP121 T02000183
KOKB 090952Z AUTO 00000KT 8SM CLR 21/19 A2989 RMK AO2 SLP120 T02110194
KOKB 090852Z AUTO 00000KT 8SM CLR 22/19 A2990 RMK AO2 SLP123 T02170194 58011
KOKB 090752Z AUTO 29003KT 8SM CLR 22/19 A2990 RMK AO2 SLP126 T02170194 402830178
KOKB 090652Z AUTO 28004KT 8SM CLR 23/20 A2992 RMK AO2 SLP132 T02280200
KOKB 090552Z AUTO 23004KT 9SM CLR 23/19 A2993 RMK AO2 SLP133 T02280194 10267 20228 53008
KOKB 090452Z AUTO 29003KT 9SM CLR 23/19 A2991 RMK AO2 SLP129 T02330189
KOKB 090352Z AUTO 22004KT 9SM CLR 23/19 A2991 RMK AO2 SLP128 T02330189